createdAt,value
2019-02-28T00:00:18.999Z,4.6
2019-02-28T00:02:22.379Z,3.9
2019-02-28T00:04:19.250Z,5.5
2019-02-28T00:06:18.529Z,5.4
2019-02-28T00:08:19.157Z,4
2019-02-28T00:10:19.424Z,4.5
2019-02-28T00:12:19.084Z,5
2019-02-28T00:14:18.693Z,4.6
2019-02-28T00:16:19.187Z,4.8
2019-02-28T00:18:18.890Z,4.5
2019-02-28T00:20:18.574Z,4.1
2019-02-28T00:22:19.216Z,5
2019-02-28T00:24:18.833Z,4.7
2019-02-28T00:26:18.741Z,4.8
2019-02-28T00:28:19.353Z,4.1
2019-02-28T00:30:19.022Z,4.7
2019-02-28T00:32:21.336Z,4.2
2019-02-28T00:34:19.059Z,5
2019-02-28T00:36:19.729Z,5.2
2019-02-28T00:38:19.442Z,3.8
2019-02-28T00:40:18.550Z,3.8
2019-02-28T00:42:19.226Z,4.3
2019-02-28T00:44:18.850Z,4.5
2019-02-28T00:46:18.610Z,4.4
2019-02-28T00:48:21.567Z,3.7
2019-02-28T00:50:19.100Z,4.2
2019-02-28T00:52:18.707Z,4.6
2019-02-28T00:54:19.366Z,3.7
2019-02-28T00:56:19.245Z,4
2019-02-28T00:58:18.908Z,4.2
2019-02-28T01:00:18.573Z,4.1
2019-02-28T01:02:19.192Z,3.4
2019-02-28T01:04:18.822Z,3.6
2019-02-28T01:06:18.835Z,2.9
2019-02-28T01:08:19.079Z,4.2
2019-02-28T01:10:18.758Z,3.9
2019-02-28T01:12:20.158Z,3.8
2019-02-28T01:14:18.857Z,3.2
2019-02-28T01:16:20.114Z,3.7
2019-02-28T01:18:18.919Z,3.2
2019-02-28T01:20:18.589Z,4
2019-02-28T01:22:19.193Z,4.2
2019-02-28T01:24:18.809Z,4.7
2019-02-28T01:26:18.776Z,5.1
2019-02-28T01:28:18.413Z,4.1
2019-02-28T01:30:19.047Z,4.2
2019-02-28T01:32:18.672Z,4.3
2019-02-28T01:34:19.286Z,3.8
2019-02-28T01:36:18.616Z,3.6
2019-02-28T01:38:19.237Z,3.4
2019-02-28T01:40:19.395Z,4.2
2019-02-28T01:42:19.933Z,3.9
2019-02-28T01:44:19.408Z,4
2019-02-28T01:46:18.598Z,4.1
2019-02-28T01:48:19.212Z,4.2
2019-02-28T01:50:19.218Z,3.5
2019-02-28T01:52:18.894Z,4.1
2019-02-28T01:54:18.550Z,2.8
2019-02-28T01:56:18.897Z,3.7
2019-02-28T01:58:18.538Z,3.6
2019-02-28T02:00:19.195Z,3.4
2019-02-28T02:02:18.857Z,3.4
2019-02-28T02:04:18.495Z,3.7
2019-02-28T02:06:19.347Z,2.8
2019-02-28T02:08:18.990Z,3.6
2019-02-28T02:10:21.192Z,4.7
2019-02-28T02:12:19.330Z,3.8
2019-02-28T02:14:18.948Z,4.3
2019-02-28T02:16:19.228Z,3.5
2019-02-28T02:18:18.926Z,4.3
2019-02-28T02:20:18.571Z,4
2019-02-28T02:22:19.230Z,4.3
2019-02-28T02:24:18.886Z,3.8
2019-02-28T02:26:18.641Z,3.9
2019-02-28T02:28:19.296Z,4.1
2019-02-28T02:30:19.025Z,4.9
2019-02-28T02:32:18.681Z,3.8
2019-02-28T02:34:19.325Z,4.2
2019-02-28T02:36:19.198Z,5
2019-02-28T02:38:18.838Z,4.4
2019-02-28T02:40:22.873Z,4.5
2019-02-28T02:42:18.830Z,5.1
2019-02-28T02:44:18.467Z,3.7
2019-02-28T02:46:20.130Z,3.8
2019-02-28T02:48:19.009Z,4.6
2019-02-28T02:50:18.871Z,5
2019-02-28T02:52:25.353Z,5.8
2019-02-28T02:54:20.171Z,3.7
2019-02-28T02:56:18.604Z,4.3
2019-02-28T02:58:19.243Z,5.1
2019-02-28T03:00:18.470Z,4.5
2019-02-28T03:02:19.139Z,4.9
2019-02-28T03:04:22.815Z,5
2019-02-28T03:06:19.305Z,5.1
2019-02-28T03:08:18.941Z,5.2
2019-02-28T03:10:19.640Z,5.2
2019-02-28T03:12:18.598Z,4.2
2019-02-28T03:14:19.237Z,4.7
2019-02-28T03:16:18.557Z,5.9
2019-02-28T03:18:20.368Z,5.1
2019-02-28T03:20:19.276Z,5.4
2019-02-28T03:22:18.907Z,5.7
2019-02-28T03:24:18.633Z,5.2
2019-02-28T03:26:18.926Z,5.7
2019-02-28T03:28:18.557Z,5.2
2019-02-28T03:30:27.551Z,4.5
2019-02-28T03:32:18.793Z,7
2019-02-28T03:34:18.506Z,5.7
2019-02-28T03:36:18.518Z,5.4
2019-02-28T03:38:19.213Z,5.4
2019-02-28T03:40:19.344Z,6.6
2019-02-28T03:42:18.977Z,5.7
2019-02-28T03:44:21.229Z,6.3
2019-02-28T03:46:19.376Z,5.8
2019-02-28T03:48:19.159Z,5.2
2019-02-28T03:50:21.847Z,6.2
2019-02-28T03:52:18.669Z,6
2019-02-28T03:54:19.332Z,5.5
2019-02-28T03:56:18.680Z,6.9
2019-02-28T03:58:19.346Z,6.4
2019-02-28T04:00:19.013Z,6.2
2019-02-28T04:02:22.103Z,6.1
2019-02-28T04:04:19.139Z,4.6
2019-02-28T04:06:19.389Z,6.9
2019-02-28T04:08:19.051Z,5.6
2019-02-28T04:10:21.648Z,7
2019-02-28T04:12:19.353Z,7
2019-02-28T04:14:19.000Z,5.8
2019-02-28T04:16:19.118Z,6.4
2019-02-28T04:18:18.811Z,6.8
2019-02-28T04:20:18.552Z,6.4
2019-02-28T04:22:19.385Z,7
2019-02-28T04:24:19.421Z,7
2019-02-28T04:26:19.070Z,6.5
2019-02-28T04:28:19.156Z,7.9
2019-02-28T04:30:18.844Z,6.5
2019-02-28T04:32:18.501Z,6.8
2019-02-28T04:34:19.144Z,6.8
2019-02-28T04:36:19.168Z,6.7
2019-02-28T04:38:20.696Z,7.3
2019-02-28T04:40:18.566Z,7.3
2019-02-28T04:42:19.246Z,7
2019-02-28T04:44:19.022Z,7.4
2019-02-28T04:46:19.293Z,8.3
2019-02-28T04:48:18.952Z,6.5
2019-02-28T04:50:18.582Z,8
2019-02-28T04:52:19.199Z,7.5
2019-02-28T04:54:18.879Z,8.9
2019-02-28T04:56:18.697Z,8.8
2019-02-28T04:58:19.322Z,8
2019-02-28T05:00:19.012Z,8
2019-02-28T05:02:19.882Z,7.7
2019-02-28T05:04:19.286Z,7.1
2019-02-28T05:06:21.141Z,9
2019-02-28T05:08:18.443Z,7.6
2019-02-28T05:10:19.188Z,9.5
2019-02-28T05:12:19.305Z,7.4
2019-02-28T05:14:23.306Z,9.7
2019-02-28T05:16:19.177Z,9.1
2019-02-28T05:18:18.908Z,9.2
2019-02-28T05:20:18.566Z,7.8
2019-02-28T05:22:19.183Z,9.2
2019-02-28T05:24:18.811Z,8.3
2019-02-28T05:26:18.638Z,9.1
2019-02-28T05:28:19.278Z,7.9
2019-02-28T05:30:19.790Z,8.6
2019-02-28T05:32:18.503Z,9
2019-02-28T05:34:19.127Z,9.4
2019-02-28T05:36:18.522Z,9.5
2019-02-28T05:38:21.095Z,10.1
2019-02-28T05:40:18.671Z,10.8
2019-02-28T05:42:20.221Z,10.4
2019-02-28T05:44:18.539Z,10.4
2019-02-28T05:46:20.220Z,10.5
2019-02-28T05:48:19.113Z,10.1
2019-02-28T05:50:18.760Z,10.8
2019-02-28T05:52:19.393Z,9.7
2019-02-28T05:54:19.012Z,11.7
2019-02-28T05:56:18.674Z,10.9
2019-02-28T05:58:20.840Z,11
2019-02-28T06:00:18.567Z,10.8
2019-02-28T06:02:22.333Z,11.8
2019-02-28T06:04:18.722Z,10.9
2019-02-28T06:06:20.127Z,10.5
2019-02-28T06:08:18.554Z,12.7
2019-02-28T06:10:23.334Z,11.3
2019-02-28T06:12:19.437Z,11.8
2019-02-28T06:14:19.050Z,12
2019-02-28T06:16:18.947Z,12.9
2019-02-28T06:18:18.679Z,11.9
2019-02-28T06:20:19.325Z,9.3
2019-02-28T06:22:18.982Z,12.9
2019-02-28T06:24:18.671Z,12.5
2019-02-28T06:26:18.757Z,12.2
2019-02-28T06:28:19.391Z,12.3
2019-02-28T06:30:19.037Z,13.2
2019-02-28T06:32:22.976Z,13
2019-02-28T06:34:19.257Z,13.6
2019-02-28T06:36:18.590Z,14
2019-02-28T06:38:19.876Z,14.4
2019-02-28T06:40:19.027Z,13.5
2019-02-28T06:42:18.662Z,14.3
2019-02-28T06:44:19.304Z,13.1
2019-02-28T06:46:18.663Z,14.7
2019-02-28T06:48:20.353Z,15.8
2019-02-28T06:50:19.239Z,15.5
2019-02-28T06:52:18.852Z,17.7
2019-02-28T06:54:18.488Z,16.4
2019-02-28T06:56:21.832Z,16.2
2019-02-28T06:58:18.681Z,15.6
2019-02-28T07:00:19.316Z,17
2019-02-28T07:02:18.945Z,17.6
2019-02-28T07:04:18.576Z,18
2019-02-28T07:06:19.403Z,16.5
2019-02-28T07:08:20.610Z,13.3
2019-02-28T07:10:18.747Z,12.4
2019-02-28T07:12:19.360Z,14.5
2019-02-28T07:14:18.989Z,14.4
2019-02-28T07:16:19.212Z,13.9
2019-02-28T07:18:19.961Z,17.3
2019-02-28T07:20:18.733Z,15.7
2019-02-28T07:22:19.592Z,16.4
2019-02-28T07:24:19.241Z,14.2
2019-02-28T07:26:18.895Z,16.8
2019-02-28T07:28:19.203Z,17.9
2019-02-28T07:30:19.415Z,16.4
2019-02-28T07:32:19.299Z,16.7
2019-02-28T07:34:20.854Z,19.8
2019-02-28T07:36:19.310Z,18.1
2019-02-28T07:38:18.965Z,16.6
2019-02-28T07:40:19.066Z,16.5
2019-02-28T07:42:18.682Z,15.4
2019-02-28T07:44:22.106Z,20.8
2019-02-28T07:46:18.538Z,20
2019-02-28T07:48:19.136Z,18.6
2019-02-28T07:50:18.769Z,17.4
2019-02-28T07:52:20.429Z,16.2
2019-02-28T07:54:20.465Z,21.3
2019-02-28T07:56:18.738Z,17.6
2019-02-28T07:58:19.354Z,17.1
2019-02-28T08:00:18.971Z,17.2
2019-02-28T08:02:18.579Z,17.9
2019-02-28T08:04:19.304Z,21.3
2019-02-28T08:06:18.843Z,19.4
2019-02-28T08:08:18.433Z,21.3
2019-02-28T08:10:18.513Z,17.8
2019-02-28T08:12:19.105Z,20.1
2019-02-28T08:14:18.710Z,20.8
2019-02-28T08:16:18.418Z,22.4
2019-02-28T08:18:19.643Z,20.9
2019-02-28T08:20:19.327Z,20.1
2019-02-28T08:22:23.081Z,20.8
2019-02-28T08:24:19.243Z,21.1
2019-02-28T08:26:19.721Z,19.3
2019-02-28T08:28:19.402Z,20.8
2019-02-28T08:30:19.407Z,21
2019-02-28T08:32:19.170Z,12.7
2019-02-28T08:34:20.544Z,21.7
2019-02-28T08:36:18.632Z,22.4
2019-02-28T08:38:19.255Z,21.5
2019-02-28T08:40:19.351Z,18.9
2019-02-28T08:42:18.901Z,22.3
2019-02-28T08:44:22.455Z,20.2
2019-02-28T08:46:19.227Z,20.9
2019-02-28T08:48:18.869Z,19.5
2019-02-28T08:50:20.187Z,21.4
2019-02-28T08:52:19.138Z,18.6
2019-02-28T08:54:18.749Z,24.3
2019-02-28T08:56:19.088Z,23.7
2019-02-28T08:58:18.714Z,23.4
2019-02-28T09:00:19.345Z,23.2
2019-02-28T09:02:19.042Z,18.1
2019-02-28T09:04:18.713Z,20.9
2019-02-28T09:06:18.919Z,25.1
2019-02-28T09:08:18.523Z,16.5
2019-02-28T09:10:18.546Z,22.4
2019-02-28T09:12:19.165Z,21.6
2019-02-28T09:14:18.782Z,24.3
2019-02-28T09:16:19.056Z,23.2
2019-02-28T09:18:18.749Z,23
2019-02-28T09:20:19.389Z,23.4
2019-02-28T09:22:18.991Z,18
2019-02-28T09:24:18.606Z,22.2
2019-02-28T09:26:18.901Z,21.5
2019-02-28T09:28:18.517Z,22.7
2019-02-28T09:30:19.158Z,26
2019-02-28T09:32:18.780Z,19.6
2019-02-28T09:34:19.388Z,23.2
2019-02-28T09:36:20.646Z,25.6
2019-02-28T09:38:19.294Z,19.2
2019-02-28T09:40:19.343Z,21.8
2019-02-28T09:42:18.969Z,24.6
2019-02-28T09:44:18.589Z,21.7
2019-02-28T09:46:18.825Z,23.6
2019-02-28T09:48:18.500Z,22.2
2019-02-28T09:50:19.283Z,22
2019-02-28T09:52:18.812Z,23.7
2019-02-28T09:54:21.197Z,24.7
2019-02-28T09:56:19.509Z,24.5
2019-02-28T09:58:19.184Z,23.8
2019-02-28T10:00:18.814Z,22.7
2019-02-28T10:02:18.424Z,24
2019-02-28T10:04:19.037Z,22.6
2019-02-28T10:06:19.344Z,20.1
2019-02-28T10:08:18.948Z,19.7
2019-02-28T10:10:20.752Z,18.7
2019-02-28T10:12:18.630Z,22.9
2019-02-28T10:14:19.242Z,20.9
2019-02-28T10:16:18.540Z,24.2
2019-02-28T10:18:19.212Z,19.4
2019-02-28T10:20:18.904Z,23.2
2019-02-28T10:22:18.504Z,22.5
2019-02-28T10:24:19.108Z,22.3
2019-02-28T10:26:18.900Z,21.6
2019-02-28T10:28:18.503Z,20.8
2019-02-28T10:30:28.296Z,24.1
2019-02-28T10:32:19.056Z,20
2019-02-28T10:34:18.660Z,20.3
2019-02-28T10:36:18.884Z,19.4
2019-02-28T10:38:18.488Z,22.6
2019-02-28T10:40:18.740Z,23
2019-02-28T10:42:19.404Z,20.5
2019-02-28T10:44:19.006Z,24.5
2019-02-28T10:46:20.166Z,21.1
2019-02-28T10:48:18.912Z,22
2019-02-28T10:50:18.532Z,20.3
2019-02-28T10:52:19.142Z,21
2019-02-28T10:54:18.759Z,13.1
2019-02-28T10:56:18.478Z,20.1
2019-02-28T10:58:19.102Z,20.9
2019-02-28T11:00:20.050Z,22.4
2019-02-28T11:02:19.722Z,22.8
2019-02-28T11:04:18.536Z,11.3
2019-02-28T11:06:18.794Z,20.8
2019-02-28T11:08:19.455Z,21.1
2019-02-28T11:10:18.523Z,22.5
2019-02-28T11:12:19.971Z,23.3
2019-02-28T11:14:19.392Z,20.4
2019-02-28T11:16:20.397Z,20.6
2019-02-28T11:18:19.339Z,22.5
2019-02-28T11:20:22.275Z,20.1
2019-02-28T11:22:18.429Z,22.8
2019-02-28T11:24:20.514Z,21.9
2019-02-28T11:26:19.058Z,23.7
2019-02-28T11:28:18.702Z,24.2
2019-02-28T11:30:19.367Z,10.9
2019-02-28T11:32:18.986Z,23.6
2019-02-28T11:34:18.830Z,20.7
2019-02-28T11:36:19.040Z,21.2
2019-02-28T11:38:21.420Z,21.7
2019-02-28T11:40:18.689Z,22.4
2019-02-28T11:42:19.317Z,21.8
2019-02-28T11:44:18.934Z,22.1
2019-02-28T11:46:19.301Z,20.3
2019-02-28T11:48:20.227Z,17.6
2019-02-28T11:50:19.138Z,22.9
2019-02-28T11:52:18.760Z,23.2
2019-02-28T11:54:19.373Z,21.6
2019-02-28T11:56:19.103Z,23.3
2019-02-28T11:58:18.721Z,22.2
2019-02-28T12:00:19.358Z,22.6
2019-02-28T12:02:20.098Z,21
2019-02-28T12:04:19.001Z,19.2
2019-02-28T12:06:18.851Z,18.1
2019-02-28T12:08:18.486Z,22.3
2019-02-28T12:10:18.597Z,23
2019-02-28T12:12:19.227Z,22.7
2019-02-28T12:14:18.851Z,23.4
2019-02-28T12:16:20.261Z,22.3
2019-02-28T12:18:19.023Z,22.2
2019-02-28T12:20:18.661Z,20.7
2019-02-28T12:22:19.304Z,22.1
2019-02-28T12:24:18.918Z,20.8
2019-02-28T12:26:21.042Z,19.7
2019-02-28T12:28:18.763Z,21.8
2019-02-28T12:30:21.896Z,19.9
2019-02-28T12:32:18.754Z,22.5
2019-02-28T12:34:19.368Z,20.6
2019-02-28T12:36:18.613Z,20.5
2019-02-28T12:38:19.264Z,20.2
2019-02-28T12:40:19.330Z,22.8
2019-02-28T12:42:18.962Z,21.3
2019-02-28T12:44:18.586Z,18.6
2019-02-28T12:46:18.815Z,20.3
2019-02-28T12:48:18.420Z,16.3
2019-02-28T12:50:19.067Z,17.3
2019-02-28T12:52:18.530Z,24.3
2019-02-28T12:54:19.151Z,19
2019-02-28T12:56:18.533Z,20.6
2019-02-28T12:58:19.166Z,21
2019-02-28T13:00:19.807Z,18.9
2019-02-28T13:02:18.514Z,20.3
2019-02-28T13:04:19.139Z,19
2019-02-28T13:06:23.367Z,19.7
2019-02-28T13:08:19.344Z,21.3
2019-02-28T13:10:19.415Z,21.1
2019-02-28T13:12:19.031Z,23
2019-02-28T13:14:18.666Z,22.7
2019-02-28T13:16:20.716Z,23
2019-02-28T13:18:19.093Z,12.2
2019-02-28T13:20:18.734Z,23.4
2019-02-28T13:22:23.305Z,23.3
2019-02-28T13:24:18.947Z,19.1
2019-02-28T13:26:18.677Z,18.9
2019-02-28T13:28:22.021Z,18
2019-02-28T13:30:19.297Z,18.2
2019-02-28T13:32:18.932Z,18.2
2019-02-28T13:34:18.556Z,20.6
2019-02-28T13:36:21.581Z,20.9
2019-02-28T13:38:19.794Z,20.1
2019-02-28T13:40:19.090Z,18
2019-02-28T13:42:18.750Z,19.1
2019-02-28T13:44:19.676Z,19.6
2019-02-28T13:46:18.935Z,21.9
2019-02-28T13:48:25.580Z,20.7
2019-02-28T13:50:21.995Z,22.2
2019-02-28T13:52:20.273Z,18.1
2019-02-28T13:54:18.556Z,23.2
2019-02-28T13:56:19.028Z,21.3
2019-02-28T13:58:21.531Z,19.4
2019-02-28T14:00:18.974Z,19.5
2019-02-28T14:02:18.595Z,21.5
2019-02-28T14:04:25.776Z,21.4
2019-02-28T14:06:19.979Z,21.6
2019-02-28T14:08:18.710Z,22.8
2019-02-28T14:10:18.816Z,21
2019-02-28T14:12:20.504Z,20.5
2019-02-28T14:14:19.378Z,21.2
2019-02-28T14:16:18.620Z,18.4
2019-02-28T14:18:19.322Z,18.8
2019-02-28T14:20:18.972Z,18.9
2019-02-28T14:22:18.594Z,21.1
2019-02-28T14:24:19.229Z,19.4
2019-02-28T14:26:18.945Z,18.4
2019-02-28T14:28:18.597Z,22.2
2019-02-28T14:30:19.635Z,24.1
2019-02-28T14:32:19.386Z,18.2
2019-02-28T14:34:18.994Z,22.3
2019-02-28T14:36:18.798Z,20.7
2019-02-28T14:38:18.449Z,20.8
2019-02-28T14:40:18.769Z,22.7
2019-02-28T14:42:18.487Z,20.9
2019-02-28T14:44:19.140Z,18.2
2019-02-28T14:46:19.204Z,21.5
2019-02-28T14:48:18.952Z,20
2019-02-28T14:50:19.062Z,19.5
2019-02-28T14:52:18.536Z,19.8
2019-02-28T14:54:21.809Z,17.9
2019-02-28T14:56:18.942Z,22.2
2019-02-28T14:58:21.140Z,20.5
2019-02-28T15:00:19.030Z,18.8
2019-02-28T15:02:18.657Z,18.8
2019-02-28T15:04:19.272Z,19.5
2019-02-28T15:06:18.626Z,18.6
2019-02-28T15:08:19.243Z,20.5
2019-02-28T15:10:19.306Z,19.6
2019-02-28T15:12:20.225Z,18
2019-02-28T15:14:18.879Z,19.3
2019-02-28T15:16:18.770Z,20.5
2019-02-28T15:18:18.469Z,20.3
2019-02-28T15:20:19.124Z,20.8
2019-02-28T15:22:20.988Z,19.6
2019-02-28T15:24:18.839Z,21.6
2019-02-28T15:26:18.542Z,17.3
2019-02-28T15:28:19.178Z,20.3
2019-02-28T15:30:18.864Z,20.5
2019-02-28T15:32:18.477Z,18.1
2019-02-28T15:34:19.089Z,21.8
2019-02-28T15:36:20.855Z,22.1
2019-02-28T15:38:18.519Z,20
2019-02-28T15:40:21.432Z,21.7
2019-02-28T15:42:18.844Z,23.4
2019-02-28T15:44:18.489Z,19.4
2019-02-28T15:46:18.760Z,21
2019-02-28T15:48:19.391Z,22.7
2019-02-28T15:50:19.030Z,21.6
2019-02-28T15:52:18.644Z,20
2019-02-28T15:54:21.612Z,21
2019-02-28T15:56:19.906Z,20.4
2019-02-28T15:58:18.452Z,22.3
2019-02-28T16:00:22.023Z,21.2
2019-02-28T16:02:18.535Z,22.1
2019-02-28T16:04:19.179Z,21.4
2019-02-28T16:06:19.577Z,21.4
2019-02-28T16:08:19.169Z,22.6
2019-02-28T16:10:19.271Z,22.5
2019-02-28T16:12:18.914Z,23.4
2019-02-28T16:14:18.542Z,23.5
2019-02-28T16:16:21.381Z,20.9
2019-02-28T16:18:18.972Z,19.4
2019-02-28T16:20:18.609Z,23.1
2019-02-28T16:22:19.232Z,22.6
2019-02-28T16:24:18.858Z,24.4
2019-02-28T16:26:21.707Z,23.6
2019-02-28T16:28:19.258Z,22.5
2019-02-28T16:30:18.891Z,24.7
2019-02-28T16:32:18.508Z,25
2019-02-28T16:34:19.150Z,25.7
2019-02-28T16:36:22.103Z,23.8
2019-02-28T16:38:19.065Z,24
2019-02-28T16:40:20.268Z,23.6
2019-02-28T16:42:18.467Z,22.2
2019-02-28T16:44:19.101Z,24.1
2019-02-28T16:46:19.372Z,23.6
2019-02-28T16:48:18.979Z,23.4
2019-02-28T16:50:19.680Z,22.9
2019-02-28T16:52:19.385Z,23.2
2019-02-28T16:54:19.285Z,24.1
2019-02-28T16:56:19.238Z,23.5
2019-02-28T16:58:21.811Z,22.4
2019-02-28T17:00:18.486Z,23.8
2019-02-28T17:02:19.117Z,26.3
2019-02-28T17:04:18.756Z,25.4
2019-02-28T17:06:18.537Z,24.7
2019-02-28T17:08:19.496Z,26.2
2019-02-28T17:10:18.645Z,24.8
2019-02-28T17:12:19.264Z,23.9
2019-02-28T17:14:18.874Z,25.2
2019-02-28T17:16:19.060Z,25.4
2019-02-28T17:18:21.379Z,26.7
2019-02-28T17:20:19.176Z,26.6
2019-02-28T17:22:18.794Z,26.5
2019-02-28T17:24:19.417Z,23.9
2019-02-28T17:26:19.158Z,27
2019-02-28T17:28:18.776Z,27.7
2019-02-28T17:30:19.412Z,25.7
2019-02-28T17:32:19.098Z,26
2019-02-28T17:34:23.637Z,26.8
2019-02-28T17:36:20.518Z,25.3
2019-02-28T17:38:19.265Z,26.6
2019-02-28T17:40:19.392Z,25.1
2019-02-28T17:42:19.007Z,26.7
2019-02-28T17:44:18.629Z,26.5
2019-02-28T17:46:19.369Z,27.6
2019-02-28T17:48:18.978Z,25.3
2019-02-28T17:50:18.628Z,24.8
2019-02-28T17:52:19.279Z,26.8
2019-02-28T17:54:20.745Z,25.1
2019-02-28T17:56:22.708Z,24.7
2019-02-28T17:58:18.693Z,27
2019-02-28T18:00:19.385Z,24.7
2019-02-28T18:02:18.996Z,26.2
2019-02-28T18:04:20.870Z,26
2019-02-28T18:06:19.096Z,27.3
2019-02-28T18:08:18.757Z,24.1
2019-02-28T18:10:20.930Z,25.4
2019-02-28T18:12:18.887Z,27.3
2019-02-28T18:14:18.493Z,25.2
2019-02-28T18:16:21.314Z,23.9
2019-02-28T18:18:19.322Z,26.3
2019-02-28T18:20:18.939Z,25
2019-02-28T18:22:18.569Z,27.6
2019-02-28T18:24:19.202Z,27.4
2019-02-28T18:26:18.574Z,26.7
2019-02-28T18:28:22.510Z,29.3
2019-02-28T18:30:19.229Z,28.6
2019-02-28T18:32:18.857Z,25.1
2019-02-28T18:34:20.520Z,25.1
2019-02-28T18:36:18.633Z,26.4
2019-02-28T18:38:19.236Z,26.1
2019-02-28T18:40:19.298Z,26.8
2019-02-28T18:42:19.838Z,27.3
2019-02-28T18:44:18.611Z,27.9
2019-02-28T18:46:19.099Z,25.4
2019-02-28T18:48:18.772Z,27.2
2019-02-28T18:50:19.536Z,26.1
2019-02-28T18:52:20.198Z,25.9
2019-02-28T18:54:18.877Z,26.1
2019-02-28T18:56:19.331Z,27.6
2019-02-28T18:58:18.953Z,26.6
2019-02-28T19:00:18.572Z,24.8
2019-02-28T19:02:19.080Z,25.8
2019-02-28T19:04:18.699Z,23.8
2019-02-28T19:06:19.090Z,28.5
2019-02-28T19:08:18.725Z,27.8
2019-02-28T19:10:18.901Z,27.1
2019-02-28T19:12:18.549Z,26.3
2019-02-28T19:14:19.165Z,26.3
2019-02-28T19:16:19.327Z,24.5
2019-02-28T19:18:19.022Z,27
2019-02-28T19:20:18.647Z,25
2019-02-28T19:22:19.263Z,25.4
2019-02-28T19:24:18.886Z,26.6
2019-02-28T19:26:18.586Z,25.2
2019-02-28T19:28:19.188Z,25.8
2019-02-28T19:30:18.817Z,26.1
2019-02-28T19:32:18.428Z,26.2
2019-02-28T19:34:19.048Z,27
2019-02-28T19:36:18.914Z,25.7
2019-02-28T19:38:18.535Z,26.8
2019-02-28T19:40:18.577Z,26.1
2019-02-28T19:42:19.250Z,28
2019-02-28T19:44:18.847Z,26.4
2019-02-28T19:46:18.626Z,26.1
2019-02-28T19:48:19.246Z,27.7
2019-02-28T19:50:18.876Z,26.3
2019-02-28T19:52:18.511Z,27.2
2019-02-28T19:54:19.120Z,27.1
2019-02-28T19:56:18.580Z,24.4
2019-02-28T19:58:19.203Z,30.5
2019-02-28T20:00:18.835Z,29.9
2019-02-28T20:02:18.433Z,28.9
2019-02-28T20:04:19.039Z,25.9
2019-02-28T20:06:19.269Z,25.3
2019-02-28T20:08:18.880Z,27.3
2019-02-28T20:10:18.915Z,25.7
2019-02-28T20:12:18.540Z,26.1
2019-02-28T20:14:19.177Z,25.6
2019-02-28T20:16:18.949Z,28.4
2019-02-28T20:18:18.618Z,29.4
2019-02-28T20:20:19.274Z,24.6
2019-02-28T20:22:18.881Z,24.5
2019-02-28T20:24:18.506Z,26.2
2019-02-28T20:26:18.854Z,26.1
2019-02-28T20:28:18.444Z,27.4
2019-02-28T20:30:19.086Z,27.2
2019-02-28T20:32:18.706Z,29.1
2019-02-28T20:34:19.319Z,27.6
2019-02-28T20:36:18.652Z,27.2
2019-02-28T20:38:19.260Z,24.3
2019-02-28T20:40:19.333Z,26.9
2019-02-28T20:42:19.651Z,24.8
2019-02-28T20:44:19.347Z,24.9
2019-02-28T20:46:18.616Z,26.2
2019-02-28T20:48:19.217Z,25.4
2019-02-28T20:50:18.854Z,26.4
2019-02-28T20:52:18.468Z,24.4
2019-02-28T20:54:19.085Z,26
2019-02-28T20:56:18.829Z,25.5
2019-02-28T20:58:18.434Z,25.2
2019-02-28T21:00:19.064Z,23.6
2019-02-28T21:02:18.845Z,24.7
2019-02-28T21:04:18.491Z,24.5
2019-02-28T21:06:19.321Z,24.2
2019-02-28T21:08:18.925Z,25.7
2019-02-28T21:10:18.971Z,25
2019-02-28T21:12:18.578Z,23
2019-02-28T21:14:19.178Z,23.2
2019-02-28T21:16:18.412Z,24.6
2019-02-28T21:18:19.096Z,26.2
2019-02-28T21:20:18.712Z,25.6
2019-02-28T21:22:19.341Z,23.7
2019-02-28T21:24:18.941Z,23.4
2019-02-28T21:26:18.702Z,25.3
2019-02-28T21:28:19.305Z,23
2019-02-28T21:30:18.915Z,23.3
2019-02-28T21:32:18.514Z,25.1
2019-02-28T21:34:19.136Z,20.2
2019-02-28T21:36:19.055Z,23.9
2019-02-28T21:38:18.668Z,23.4
2019-02-28T21:40:18.841Z,21.9
2019-02-28T21:42:18.459Z,22.5
2019-02-28T21:44:19.062Z,23
2019-02-28T21:46:18.806Z,21.4
2019-02-28T21:48:18.421Z,21
2019-02-28T21:50:19.077Z,20.8
2019-02-28T21:52:18.676Z,19.1
2019-02-28T21:54:19.275Z,22
2019-02-28T21:56:19.014Z,22.3
2019-02-28T21:58:18.657Z,22.4
2019-02-28T22:00:19.307Z,19.1
2019-02-28T22:02:18.916Z,22
2019-02-28T22:04:18.528Z,20
2019-02-28T22:06:18.896Z,20.7
2019-02-28T22:08:18.501Z,20.5
2019-02-28T22:10:18.575Z,19.7
2019-02-28T22:12:19.180Z,18.9
2019-02-28T22:14:18.791Z,20.1
2019-02-28T22:16:18.967Z,18.2
2019-02-28T22:18:18.664Z,20.4
2019-02-28T22:20:19.310Z,21.7
2019-02-28T22:22:18.910Z,19.7
2019-02-28T22:24:18.522Z,18.6
2019-02-28T22:26:19.292Z,18.3
2019-02-28T22:28:18.914Z,20.4
2019-02-28T22:30:18.544Z,21.7
2019-02-28T22:32:24.287Z,19
2019-02-28T22:34:19.318Z,21.2
2019-02-28T22:36:18.526Z,18.5
2019-02-28T22:38:19.143Z,18.8
2019-02-28T22:40:19.206Z,21
2019-02-28T22:42:22.248Z,20.7
2019-02-28T22:44:19.202Z,20.1
2019-02-28T22:46:19.042Z,20.6
2019-02-28T22:48:18.638Z,19.9
2019-02-28T22:50:19.255Z,21.1
2019-02-28T22:52:18.885Z,19.6
2019-02-28T22:54:18.498Z,20.7
2019-02-28T22:56:18.774Z,21.2
2019-02-28T22:58:19.390Z,19.8
2019-02-28T23:00:19.046Z,18.3
2019-02-28T23:02:18.654Z,20.1
2019-02-28T23:04:19.248Z,20.3
2019-02-28T23:06:18.990Z,19.8
2019-02-28T23:08:18.626Z,19.4
2019-02-28T23:10:18.676Z,19.2
2019-02-28T23:12:19.277Z,18.1
2019-02-28T23:14:18.894Z,20.5
2019-02-28T23:16:19.333Z,19.4
2019-02-28T23:18:19.002Z,18.3
2019-02-28T23:20:18.639Z,19
2019-02-28T23:22:18.996Z,17.8
2019-02-28T23:24:18.635Z,19.9
2019-02-28T23:26:18.857Z,20
2019-02-28T23:28:18.461Z,18.7
2019-02-28T23:30:19.081Z,17.9
2019-02-28T23:32:18.696Z,17.7
2019-02-28T23:34:19.300Z,21.3
2019-02-28T23:36:18.779Z,17.7
2019-02-28T23:38:19.385Z,20
2019-02-28T23:40:18.452Z,16.9
2019-02-28T23:42:19.061Z,17.4
2019-02-28T23:44:18.681Z,19.6
2019-02-28T23:46:18.873Z,17
2019-02-28T23:48:18.483Z,18.5
2019-02-28T23:50:19.111Z,20.1
2019-02-28T23:52:18.728Z,18.2
2019-02-28T23:54:19.351Z,17.9
2019-02-28T23:56:19.084Z,17.3
2019-02-28T23:58:18.677Z,15.8
